Time;durP1;ratioP1;P1;durP2;ratioP2;P2;SDS_P1;SDS_P2;PMS_P1;PMS_P2;Temp;Humidity;BMP_temperature;BMP_pressure;BME280_temperature;BME280_humidity;BME280_pressure;Samples;Min_cycle;Max_cycle;Signal;HPM_P1;HPM_P2
2022/10/07 00:01:13;;;;;;;8.73;2.00;;;;;;;9.34;100.00;102591.38;4900124;29;20054;-79
2022/10/07 00:03:41;;;;;;;4.82;2.25;;;;;;;9.33;100.00;102594.84;4890481;29;20054;-79
2022/10/07 00:06:15;;;;;;;5.68;2.00;;;;;;;9.33;100.00;102596.59;4881584;29;20303;-79
2022/10/07 00:08:47;;;;;;;8.80;2.38;;;;;;;9.30;100.00;102591.22;4908269;29;20563;-79
2022/10/07 00:11:20;;;;;;;9.15;2.97;;;;;;;9.28;100.00;102593.81;4886001;29;20040;-78
2022/10/07 00:13:52;;;;;;;10.95;2.15;;;;;;;9.27;100.00;102589.38;4902915;29;20136;-78
2022/10/07 00:16:24;;;;;;;6.05;2.05;;;;;;;9.27;100.00;102585.84;4911566;29;20032;-79
2022/10/07 00:18:57;;;;;;;9.25;1.70;;;;;;;9.27;100.00;102585.84;4909969;29;20156;-79
2022/10/07 00:21:28;;;;;;;8.88;2.42;;;;;;;9.28;100.00;102583.28;4867464;29;20425;-79
2022/10/07 00:23:57;;;;;;;8.63;2.10;;;;;;;9.28;100.00;102585.91;4903918;29;20051;-78
2022/10/07 00:26:28;;;;;;;9.93;2.53;;;;;;;9.29;100.00;102581.53;4883828;29;20055;-79
2022/10/07 00:28:56;;;;;;;16.60;2.40;;;;;;;9.27;100.00;102573.59;4890403;29;20545;-78
2022/10/07 00:31:31;;;;;;;10.85;2.22;;;;;;;9.26;100.00;102568.25;4895285;29;20050;-79
2022/10/07 00:34:02;;;;;;;10.23;2.22;;;;;;;9.25;100.00;102570.00;4905229;29;20051;-78
2022/10/07 00:36:34;;;;;;;9.95;2.55;;;;;;;9.24;100.00;102567.31;4861029;29;20051;-79
2022/10/07 00:39:06;;;;;;;8.23;2.10;;;;;;;9.25;100.00;102571.75;4890167;29;20127;-78
2022/10/07 00:41:39;;;;;;;8.38;1.80;;;;;;;9.25;100.00;102563.88;4921695;29;20039;-79
2022/10/07 00:44:34;;;;;;;13.32;2.17;;;;;;;9.23;100.00;102568.19;4914717;29;20063;-79
2022/10/07 00:47:13;;;;;;;7.80;2.03;;;;;;;9.22;100.00;102559.38;4914374;29;20040;-78
2022/10/07 00:49:49;;;;;;;11.88;2.60;;;;;;;9.19;100.00;102561.91;4891419;29;20262;-79
2022/10/07 00:52:21;;;;;;;8.30;1.75;;;;;;;9.18;100.00;102549.56;4904844;29;20054;-78
2022/10/07 00:54:53;;;;;;;12.27;2.47;;;;;;;9.17;100.00;102548.69;4888002;29;20263;-77
2022/10/07 00:57:24;;;;;;;6.72;2.10;;;;;;;9.18;100.00;102544.31;4915119;29;20524;-80
2022/10/07 00:59:54;;;;;;;12.55;2.67;;;;;;;9.17;100.00;102547.81;4891672;29;20047;-79
2022/10/07 01:02:24;;;;;;;10.95;2.60;;;;;;;9.17;100.00;102538.16;4906193;29;20051;-79
2022/10/07 01:04:55;;;;;;;13.60;2.72;;;;;;;9.16;100.00;102546.00;4906763;29;20175;-78
2022/10/07 01:07:24;;;;;;;9.40;2.67;;;;;;;9.16;100.00;102540.75;4901532;29;20532;-78
2022/10/07 01:09:55;;;;;;;12.48;2.75;;;;;;;9.15;100.00;102541.59;4857800;29;20165;-78
2022/10/07 01:12:58;;;;;;;14.48;2.70;;;;;;;9.14;100.00;102529.28;4931539;29;20047;-78
2022/10/07 01:15:41;;;;;;;8.13;2.35;;;;;;;9.12;100.00;102533.59;4920097;29;20035;-78
2022/10/07 01:18:27;;;;;;;11.38;3.00;;;;;;;9.11;100.00;102519.56;4915357;29;20048;-78
2022/10/07 01:21:10;;;;;;;11.15;2.65;;;;;;;9.11;100.00;102522.19;4891504;29;20178;-77
2022/10/07 01:23:54;;;;;;;17.83;2.78;;;;;;;9.10;100.00;102514.22;4856870;29;20032;-78
2022/10/07 01:26:54;;;;;;;8.48;2.40;;;;;;;9.07;100.00;102509.72;4915623;29;20051;-78
2022/10/07 01:29:34;;;;;;;8.75;2.67;;;;;;;9.06;100.00;102501.81;4909109;29;20039;-78
2022/10/07 01:32:18;;;;;;;9.53;2.83;;;;;;;9.04;100.00;102490.34;4918911;29;20048;-77
2022/10/07 01:34:50;;;;;;;8.02;2.40;;;;;;;9.03;100.00;102492.06;4895695;29;20372;-78
2022/10/07 01:37:22;;;;;;;11.77;2.50;;;;;;;9.01;100.00;102493.75;4909242;29;20047;-78
2022/10/07 01:39:57;;;;;;;9.45;2.50;;;;;;;9.01;100.00;102487.59;4887239;29;20584;-78
2022/10/07 01:42:26;;;;;;;9.65;2.65;;;;;;;8.98;100.00;102483.13;4913206;29;20063;-79
2022/10/07 01:44:57;;;;;;;9.70;2.67;;;;;;;8.95;100.00;102483.91;4907417;29;20239;-78
2022/10/07 01:47:26;;;;;;;9.95;2.50;;;;;;;8.94;100.00;102474.25;4907748;29;20040;-80
2022/10/07 01:49:54;;;;;;;8.00;3.05;;;;;;;8.92;100.00;102470.66;4895372;29;20043;-79
2022/10/07 01:52:50;;;;;;;9.85;3.15;;;;;;;8.92;100.00;102467.13;4926380;29;20043;-79
2022/10/07 01:55:44;;;;;;;8.73;2.58;;;;;;;8.91;100.00;102460.97;4884452;29;20051;-79
2022/10/07 01:58:44;;;;;;;7.53;2.58;;;;;;;8.88;100.00;102450.34;4913849;29;20040;-79
2022/10/07 02:01:25;;;;;;;9.30;2.95;;;;;;;8.86;100.00;102462.53;4910453;29;20043;-77
2022/10/07 02:04:20;;;;;;;9.68;3.15;;;;;;;8.86;100.00;102445.88;4934248;28;20259;-77
2022/10/07 02:06:56;;;;;;;10.68;3.33;;;;;;;8.83;100.00;102446.66;4888170;29;20044;-79
2022/10/07 02:09:39;;;;;;;5.13;2.30;;;;;;;8.84;100.00;102447.56;4919770;29;20048;-79
2022/10/07 02:12:35;;;;;;;11.98;2.90;;;;;;;8.80;100.00;102437.78;4923968;29;20052;-79
2022/10/07 02:15:14;;;;;;;5.32;3.38;;;;;;;8.78;100.00;102433.34;4881631;29;20062;-79
2022/10/07 02:17:51;;;;;;;8.48;3.47;;;;;;;8.78;100.00;102427.19;4904551;29;20031;-79
2022/10/07 02:20:24;;;;;;;7.85;2.97;;;;;;;8.76;100.00;102434.13;4897323;29;20048;-77
2022/10/07 02:22:56;;;;;;;8.80;3.08;;;;;;;8.74;100.00;102427.94;4910926;29;20278;-78
2022/10/07 02:25:32;;;;;;;8.38;2.92;;;;;;;8.73;100.00;102423.50;4899381;29;20051;-78
2022/10/07 02:28:05;;;;;;;10.27;3.17;;;;;;;8.73;100.00;102418.25;4907597;29;20035;-78
2022/10/07 02:30:36;;;;;;;7.97;3.03;;;;;;;8.72;100.00;102413.84;4932458;28;20048;-78
2022/10/07 02:33:07;;;;;;;12.50;3.15;;;;;;;8.71;100.00;102417.31;4891668;29;20040;-78
2022/10/07 02:35:51;;;;;;;11.05;3.45;;;;;;;8.69;100.00;102408.47;4895125;29;20051;-79
2022/10/07 02:38:21;;;;;;;8.73;3.10;;;;;;;8.69;100.00;102400.59;4898384;29;20048;-78
2022/10/07 02:40:50;;;;;;;8.60;3.10;;;;;;;8.68;100.00;102404.06;4875180;29;20768;-78
2022/10/07 02:43:47;;;;;;;11.40;2.85;;;;;;;8.69;100.00;102400.59;4929104;29;20043;-78
2022/10/07 02:46:25;;;;;;;9.55;3.70;;;;;;;8.70;100.00;102397.13;4884227;29;20047;-78
2022/10/07 02:48:58;;;;;;;6.82;3.22;;;;;;;8.70;100.00;102394.50;4905159;29;20040;-77
2022/10/07 02:51:37;;;;;;;9.57;3.45;;;;;;;8.70;100.00;102390.13;4897396;29;20044;-78
2022/10/07 02:54:06;;;;;;;12.65;3.55;;;;;;;8.70;100.00;102394.50;4910215;29;20040;-78
2022/10/07 02:56:37;;;;;;;15.20;3.53;;;;;;;8.71;100.00;102388.38;4860075;29;20055;-78
2022/10/07 02:59:09;;;;;;;11.77;3.20;;;;;;;8.72;100.00;102391.06;4913893;29;20047;-77
2022/10/07 03:01:45;;;;;;;19.20;3.40;;;;;;;8.71;100.00;102377.88;4908997;29;20075;-79
2022/10/07 03:04:15;;;;;;;11.23;2.92;;;;;;;8.70;100.00;102376.09;4905778;29;20043;-77
2022/10/07 03:06:44;;;;;;;9.52;3.28;;;;;;;8.71;100.00;102381.38;4895679;29;20266;-78
2022/10/07 03:09:13;;;;;;;7.82;3.20;;;;;;;8.71;100.00;102378.75;4913498;29;20040;-77
2022/10/07 03:11:42;;;;;;;18.30;3.92;;;;;;;8.71;100.00;102370.88;4857795;29;20050;-78
2022/10/07 03:14:11;;;;;;;10.52;3.33;;;;;;;8.72;100.00;102364.78;4895674;29;20047;-78
2022/10/07 03:16:40;;;;;;;12.07;3.38;;;;;;;8.71;100.00;102368.25;4893828;29;20040;-80
2022/10/07 03:19:09;;;;;;;11.32;3.42;;;;;;;8.72;100.00;102361.28;4855386;29;20052;-80
2022/10/07 03:21:53;;;;;;;13.07;4.50;;;;;;;8.71;100.00;102360.38;4889416;29;20036;-79
2022/10/07 03:24:21;;;;;;;14.45;4.55;;;;;;;8.73;100.00;102355.16;4896582;29;20050;-79
2022/10/07 03:26:50;;;;;;;10.15;3.17;;;;;;;8.73;100.00;102355.16;4873018;29;20572;-78
2022/10/07 03:29:19;;;;;;;12.02;4.50;;;;;;;8.73;100.00;102349.91;4866183;29;20050;-78
2022/10/07 03:31:48;;;;;;;11.07;4.18;;;;;;;8.73;100.00;102349.91;4892305;29;20055;-79
2022/10/07 03:34:17;;;;;;;11.18;3.28;;;;;;;8.72;100.00;102353.41;4896140;29;20512;-78
2022/10/07 03:36:47;;;;;;;;;;;;;;;8.74;100.00;102351.72;4887869;29;20047;-78
2022/10/07 03:39:17;;;;;;;9.60;3.42;;;;;;;8.72;100.00;102342.88;4914089;29;19934;-78
2022/10/07 03:41:47;;;;;;;17.58;4.70;;;;;;;8.72;100.00;102345.50;4926185;29;20055;-79
2022/10/07 03:44:18;;;;;;;13.88;4.30;;;;;;;8.72;100.00;102340.25;4870518;29;20051;-79
2022/10/07 03:46:50;;;;;;;11.65;3.05;;;;;;;8.70;100.00;102337.56;4877508;29;20051;-79
2022/10/07 03:49:21;;;;;;;12.80;3.95;;;;;;;8.71;100.00;102335.81;4910873;29;20039;-78
2022/10/07 03:51:50;;;;;;;15.60;3.20;;;;;;;8.70;100.00;102334.94;4871548;29;20051;-79
2022/10/07 03:54:20;;;;;;;11.90;3.22;;;;;;;8.68;100.00;102323.47;4880408;29;20078;-77
2022/10/07 03:56:48;;;;;;;13.48;3.88;;;;;;;8.67;100.00;102329.56;4907721;29;20342;-78
2022/10/07 03:59:17;;;;;;;14.25;4.93;;;;;;;8.67;100.00;102328.69;4856154;29;20047;-78
2022/10/07 04:01:46;;;;;;;14.02;3.65;;;;;;;8.66;100.00;102326.88;4885027;29;20048;-78
2022/10/07 04:04:14;;;;;;;9.55;2.80;;;;;;;8.66;100.00;102326.88;4891642;29;20231;-78
2022/10/07 04:06:44;;;;;;;13.55;3.80;;;;;;;8.65;100.00;102315.47;4872605;29;20043;-78
2022/10/07 04:09:14;;;;;;;12.23;4.03;;;;;;;8.65;100.00;102317.22;4888309;29;20270;-78
2022/10/07 04:11:44;;;;;;;12.30;3.03;;;;;;;8.65;100.00;102317.22;4883728;29;20389;-78
2022/10/07 04:14:13;;;;;;;9.67;3.43;;;;;;;8.63;100.00;102311.91;4864820;29;20172;-79
2022/10/07 04:16:42;;;;;;;13.27;3.72;;;;;;;8.62;100.00;102304.88;4900375;29;20048;-79
2022/10/07 04:19:13;;;;;;;12.27;4.10;;;;;;;8.62;100.00;102299.63;4906167;29;20575;-79
2022/10/07 04:21:43;;;;;;;9.10;3.53;;;;;;;8.61;100.00;102302.19;4870037;29;20051;-79
2022/10/07 04:24:11;;;;;;;13.00;3.90;;;;;;;8.59;100.00;102297.78;4878158;29;20056;-79
2022/10/07 04:26:40;;;;;;;15.35;3.88;;;;;;;8.59;100.00;102296.88;4884857;29;20401;-79
2022/10/07 04:29:09;;;;;;;14.88;3.90;;;;;;;8.58;100.00;102296.00;4873729;29;20405;-79
2022/10/07 04:31:38;;;;;;;13.82;3.67;;;;;;;8.56;100.00;102292.44;4889863;29;20055;-79
2022/10/07 04:34:07;;;;;;;11.60;3.90;;;;;;;8.57;100.00;102302.06;4881043;29;20071;-79
2022/10/07 04:36:39;;;;;;;13.95;3.45;;;;;;;8.56;100.00;102292.44;4915981;29;20516;-79
2022/10/07 04:39:12;;;;;;;11.98;3.83;;;;;;;8.56;100.00;102297.69;4903247;29;20654;-79
2022/10/07 04:41:47;;;;;;;16.17;3.97;;;;;;;8.55;100.00;102303.75;4916271;29;20051;-78
2022/10/07 04:44:20;;;;;;;16.48;4.50;;;;;;;8.54;100.00;102296.75;4903452;29;20044;-79
2022/10/07 04:46:55;;;;;;;16.60;3.88;;;;;;;8.53;100.00;102292.31;4885154;29;20047;-79
2022/10/07 04:49:26;;;;;;;14.35;3.70;;;;;;;8.52;100.00;102293.13;4897527;29;20677;-78
2022/10/07 04:51:57;;;;;;;14.18;4.07;;;;;;;8.51;100.00;102286.09;4884162;29;20040;-79
2022/10/07 04:54:31;;;;;;;21.88;6.28;;;;;;;8.49;100.00;102290.44;4892264;29;20047;-78
2022/10/07 04:56:59;;;;;;;12.63;4.10;;;;;;;8.49;100.00;102284.28;4874719;29;20513;-80
2022/10/07 04:59:29;;;;;;;20.05;4.53;;;;;;;8.48;100.00;102280.75;4901129;29;20409;-78
2022/10/07 05:01:59;;;;;;;18.15;4.80;;;;;;;8.48;100.00;102279.84;4879324;29;20051;-78
2022/10/07 05:04:29;;;;;;;15.20;4.32;;;;;;;8.47;100.00;102278.06;4890895;29;20231;-79
2022/10/07 05:06:59;;;;;;;14.98;4.18;;;;;;;8.47;100.00;102278.97;4916264;29;20040;-79
2022/10/07 05:09:29;;;;;;;9.93;3.60;;;;;;;8.46;100.00;102271.03;4890833;29;20566;-78
2022/10/07 05:11:58;;;;;;;16.35;4.32;;;;;;;8.47;100.00;102275.44;4911933;29;20048;-78
2022/10/07 05:14:26;;;;;;;15.93;3.92;;;;;;;8.47;100.00;102265.84;4904917;29;20572;-78
2022/10/07 05:16:57;;;;;;;10.32;3.92;;;;;;;8.47;100.00;102268.47;4883282;29;20071;-78
2022/10/07 05:19:29;;;;;;;14.95;3.83;;;;;;;8.47;100.00;102268.47;4904354;29;20593;-77
2022/10/07 05:21:58;;;;;;;15.77;5.00;;;;;;;8.48;100.00;102269.34;4891667;29;20048;-77
2022/10/07 05:24:27;;;;;;;14.45;4.68;;;;;;;8.46;100.00;102269.28;4872423;29;20048;-77
2022/10/07 05:26:57;;;;;;;11.20;4.38;;;;;;;8.46;100.00;102281.53;4894677;29;20067;-77
2022/10/07 05:29:25;;;;;;;17.13;4.97;;;;;;;8.45;100.00;102270.16;4915367;29;20059;-77
2022/10/07 05:31:54;;;;;;;13.77;3.88;;;;;;;8.42;100.00;102264.78;4885734;29;20043;-77
2022/10/07 05:34:26;;;;;;;12.77;4.55;;;;;;;8.43;100.00;102265.66;4919105;29;20082;-77
2022/10/07 05:36:55;;;;;;;14.48;4.65;;;;;;;8.39;100.00;102257.66;4901960;29;20044;-77
2022/10/07 05:39:24;;;;;;;10.98;4.00;;;;;;;8.39;100.00;102256.75;4887944;29;20249;-77
2022/10/07 05:41:57;;;;;;;8.32;4.22;;;;;;;8.37;100.00;102263.69;4896067;29;20071;-78
2022/10/07 05:44:31;;;;;;;14.27;4.55;;;;;;;8.36;100.00;102257.53;4911284;29;20063;-77
2022/10/07 05:47:02;;;;;;;17.75;4.15;;;;;;;8.36;100.00;102265.41;4886924;28;20254;-78
2022/10/07 05:49:30;;;;;;;21.83;4.70;;;;;;;8.36;100.00;102252.28;4900563;29;20043;-77
2022/10/07 05:51:59;;;;;;;15.70;4.18;;;;;;;8.37;100.00;102250.53;4877426;29;20485;-77
2022/10/07 05:54:27;;;;;;;17.45;4.82;;;;;;;8.37;100.00;102254.09;4882511;29;20040;-78
2022/10/07 05:56:59;;;;;;;10.80;5.00;;;;;;;8.38;100.00;102249.72;4885158;29;20055;-77
2022/10/07 05:59:27;;;;;;;16.52;4.43;;;;;;;8.38;100.00;102253.22;4893366;29;20040;-77
2022/10/07 06:01:59;;;;;;;15.38;4.90;;;;;;;8.38;100.00;102247.97;4861900;29;20401;-77
2022/10/07 06:04:28;;;;;;;17.00;4.57;;;;;;;8.41;100.00;102244.56;4898656;29;20035;-77
2022/10/07 06:06:57;;;;;;;17.40;5.30;;;;;;;8.42;100.00;102241.13;4890238;29;20039;-78
2022/10/07 06:15:08;;;;;;;20.20;5.38;;;;;;;8.47;100.00;102247.44;4905852;29;20047;-77
2022/10/07 06:17:43;;;;;;;14.90;4.90;;;;;;;8.50;100.00;102251.91;4867484;29;20275;-77
2022/10/07 06:20:15;;;;;;;20.52;5.07;;;;;;;8.52;100.00;102248.47;4898429;29;20054;-78
2022/10/07 06:22:44;;;;;;;23.90;5.47;;;;;;;8.55;100.00;102248.59;4890156;29;20063;-77
2022/10/07 06:25:15;;;;;;;15.02;5.05;;;;;;;8.57;100.00;102249.53;4891097;29;20127;-77
2022/10/07 06:27:44;;;;;;;19.40;4.60;;;;;;;8.62;100.00;102246.16;4895641;29;20649;-77
2022/10/07 06:30:21;;;;;;;13.95;5.25;;;;;;;8.65;100.00;102241.91;4893276;29;20040;-77
2022/10/07 06:32:50;;;;;;;11.77;4.18;;;;;;;8.69;100.00;102253.41;4857185;29;20060;-78
2022/10/07 06:35:18;;;;;;;14.27;4.93;;;;;;;8.73;100.00;102257.91;4916559;29;20397;-77
2022/10/07 06:37:49;;;;;;;15.07;4.88;;;;;;;8.78;100.00;102243.22;4925393;29;20040;-77
2022/10/07 06:40:17;;;;;;;19.00;5.95;;;;;;;8.82;100.00;102250.34;4917057;29;20044;-76
2022/10/07 06:42:46;;;;;;;18.50;4.65;;;;;;;8.88;100.00;102247.03;4892215;29;20036;-77
2022/10/07 06:45:31;;;;;;;19.60;5.10;;;;;;;8.94;100.00;102249.84;4886568;29;20047;-77
2022/10/07 06:48:00;;;;;;;25.10;6.97;;;;;;;9.01;100.00;102240.44;4878052;29;20520;-77
2022/10/07 06:50:29;;;;;;;18.95;5.05;;;;;;;9.05;100.00;102248.44;4883507;29;20043;-77
2022/10/07 06:52:59;;;;;;;14.45;4.88;;;;;;;9.11;100.00;102253.94;4893370;29;20052;-77
2022/10/07 06:55:30;;;;;;;17.17;5.10;;;;;;;9.20;100.00;102269.09;4875930;29;20039;-78
2022/10/07 06:57:59;;;;;;;15.30;5.40;;;;;;;9.26;100.00;102258.78;4885236;29;20243;-77
2022/10/07 07:00:27;;;;;;;12.15;4.55;;;;;;;9.34;100.00;102256.38;4870573;29;20047;-76
2022/10/07 07:03:00;;;;;;;15.82;5.22;;;;;;;9.39;100.00;102259.16;4848626;29;20046;-77
2022/10/07 07:05:36;;;;;;;10.65;4.68;;;;;;;9.46;100.00;102253.22;4896022;29;20042;-77
2022/10/07 07:08:16;;;;;;;14.10;5.57;;;;;;;9.53;100.00;102260.47;4911455;29;20044;-77
2022/10/07 07:10:46;;;;;;;17.38;5.00;;;;;;;9.57;100.00;102246.56;4892401;29;20055;-78
2022/10/07 07:13:14;;;;;;;18.65;4.90;;;;;;;9.61;100.00;102242.28;4907401;29;21018;-78
2022/10/07 07:15:56;;;;;;;21.10;4.20;;;;;;;9.64;100.00;102245.88;4887867;29;20050;-78
2022/10/07 07:18:26;;;;;;;16.25;4.55;;;;;;;9.69;100.00;102249.53;4899781;29;20043;-77
2022/10/07 07:21:01;;;;;;;16.42;4.43;;;;;;;9.76;100.00;102245.34;4895379;29;20508;-78
2022/10/07 07:23:29;;;;;;;16.17;4.97;;;;;;;9.83;100.00;102246.41;4908877;29;20047;-78
2022/10/07 07:25:59;;;;;;;15.02;4.65;;;;;;;9.94;100.00;102244.97;4872811;29;20044;-78
2022/10/07 07:28:30;;;;;;;;;;;;;;;10.03;100.00;102244.34;4902877;29;20044;-78
2022/10/07 07:30:58;;;;;;;13.43;4.47;;;;;;;10.15;100.00;102240.31;4899630;29;19931;-78
2022/10/07 07:33:27;;;;;;;19.48;4.43;;;;;;;10.32;100.00;102245.16;4884996;29;20602;-78
2022/10/07 07:35:56;;;;;;;14.60;4.53;;;;;;;10.59;100.00;102230.94;4882673;29;20036;-78
2022/10/07 07:38:24;;;;;;;15.80;5.13;;;;;;;10.92;100.00;102231.72;4867992;29;20056;-78
2022/10/07 07:40:54;;;;;;;14.23;4.50;;;;;;;11.31;100.00;102228.25;4845733;29;20051;-79
2022/10/07 07:43:23;;;;;;;15.15;4.70;;;;;;;11.67;100.00;102221.97;4905492;29;20408;-78
2022/10/07 07:45:52;;;;;;;13.35;4.65;;;;;;;11.97;100.00;102214.66;4883624;29;20044;-79
2022/10/07 07:48:21;;;;;;;13.52;3.67;;;;;;;12.24;100.00;102216.94;4915517;29;20048;-77
2022/10/07 07:50:50;;;;;;;10.32;3.60;;;;;;;12.53;100.00;102208.59;4867024;29;20035;-78
2022/10/07 07:53:21;;;;;;;18.10;4.53;;;;;;;12.77;100.00;102211.66;4915008;29;20043;-77
2022/10/07 07:55:55;;;;;;;10.75;3.95;;;;;;;13.02;100.00;102215.59;4904397;29;20046;-77
2022/10/07 07:58:25;;;;;;;16.02;4.00;;;;;;;13.21;100.00;102207.88;4915043;29;20054;-77
2022/10/07 08:00:57;;;;;;;22.00;4.38;;;;;;;13.38;100.00;102200.22;4906035;29;20059;-78
2022/10/07 08:03:26;;;;;;;18.20;4.82;;;;;;;13.56;100.00;102203.09;4899197;29;20051;-77
2022/10/07 08:05:58;;;;;;;13.18;3.83;;;;;;;13.75;100.00;102198.91;4870325;29;20063;-77
2022/10/07 08:08:28;;;;;;;19.50;4.10;;;;;;;13.94;100.00;102197.34;4889036;29;20052;-77
2022/10/07 08:11:06;;;;;;;12.80;3.70;;;;;;;14.13;100.00;102189.59;4910521;29;20063;-77
2022/10/07 08:13:35;;;;;;;16.00;4.28;;;;;;;14.31;100.00;102179.19;4913214;29;20398;-77
2022/10/07 08:16:04;;;;;;;11.90;4.68;;;;;;;14.41;100.00;102193.41;4894492;29;20055;-77
2022/10/07 08:18:32;;;;;;;12.73;3.80;;;;;;;14.49;100.00;102188.16;4913874;29;20047;-77
2022/10/07 08:21:04;;;;;;;10.73;3.63;;;;;;;14.60;100.00;102191.81;4897448;29;20678;-77
2022/10/07 08:23:34;;;;;;;19.48;4.00;;;;;;;14.72;100.00;102186.59;4867631;29;20035;-77
2022/10/07 08:26:03;;;;;;;13.02;3.67;;;;;;;14.80;100.00;102189.31;4905838;29;20269;-78
2022/10/07 08:28:34;;;;;;;12.00;3.23;;;;;;;14.87;100.00;102183.16;4902094;29;20497;-77
2022/10/07 08:31:04;;;;;;;10.00;3.15;;;;;;;14.91;100.00;102192.03;4888112;29;20040;-77
2022/10/07 08:33:35;;;;;;;9.90;3.33;;;;;;;14.97;100.00;102184.09;4898104;29;20125;-77
2022/10/07 08:36:06;;;;;;;10.50;3.33;;;;;;;15.04;100.00;102188.59;4918959;29;20282;-78
2022/10/07 08:38:36;;;;;;;10.73;3.25;;;;;;;15.13;100.00;102185.09;4854038;29;20409;-78
2022/10/07 08:41:08;;;;;;;11.02;3.35;;;;;;;15.20;100.00;102173.66;4920091;29;20051;-78
2022/10/07 08:43:43;;;;;;;18.33;3.97;;;;;;;15.26;100.00;102175.44;4902869;29;20032;-77
2022/10/07 08:46:15;;;;;;;13.95;4.03;;;;;;;15.29;100.00;102168.38;4909295;29;20238;-78
2022/10/07 08:49:14;;;;;;;15.75;3.17;;;;;;;15.40;100.00;102165.75;4874304;29;20052;-78
2022/10/07 08:51:49;;;;;;;14.98;2.90;;;;;;;15.40;100.00;102157.78;4905950;29;20053;-78
2022/10/07 08:54:24;;;;;;;12.00;3.65;;;;;;;15.43;100.00;102156.94;4864672;29;20032;-77
2022/10/07 08:57:00;;;;;;;12.85;2.63;;;;;;;15.41;100.00;102159.56;4918179;29;20032;-77
2022/10/07 08:59:31;;;;;;;15.82;2.97;;;;;;;15.43;100.00;102147.19;4904270;29;20036;-77
2022/10/07 09:02:20;;;;;;;9.32;2.80;;;;;;;15.39;100.00;102142.75;4908673;29;20035;-77
2022/10/07 09:04:57;;;;;;;10.65;2.83;;;;;;;15.33;100.00;102142.69;4906641;29;20039;-77
2022/10/07 09:07:35;;;;;;;16.15;3.50;;;;;;;15.25;100.00;102139.13;4928520;29;20413;-77
2022/10/07 09:10:23;;;;;;;18.52;3.10;;;;;;;15.16;100.00;102140.88;4891634;29;20167;-77
2022/10/07 09:13:04;;;;;;;11.85;2.67;;;;;;;15.09;100.00;102133.75;4899347;29;20055;-78
2022/10/07 09:16:18;;;;;;;16.67;3.47;;;;;;;15.00;100.00;102126.63;4894984;29;20040;-78
2022/10/07 09:18:52;;;;;;;12.05;2.35;;;;;;;15.01;100.00;102130.19;4867736;29;20057;-78
2022/10/07 09:21:34;;;;;;;12.75;3.00;;;;;;;14.97;100.00;102131.94;4861511;29;20056;-77
2022/10/07 09:24:23;;;;;;;11.95;2.90;;;;;;;14.94;100.00;102123.94;4856461;29;20350;-77
2022/10/07 09:26:59;;;;;;;8.48;2.63;;;;;;;14.87;100.00;102121.25;4914262;29;20056;-78
2022/10/07 09:29:29;;;;;;;9.88;2.63;;;;;;;14.84;100.00;102121.22;4900827;29;20035;-79
2022/10/07 09:31:57;;;;;;;17.13;3.33;;;;;;;14.81;100.00;102112.38;4902957;29;20047;-77
2022/10/07 09:34:28;;;;;;;17.40;3.22;;;;;;;14.85;100.00;102118.59;4898889;29;20473;-77
2022/10/07 09:37:18;;;;;;;14.48;3.80;;;;;;;14.85;100.00;102112.41;4904847;29;20063;-77
2022/10/07 09:39:52;;;;;;;17.75;2.90;;;;;;;14.86;100.00;102111.50;4876545;29;20047;-78
2022/10/07 09:42:42;;;;;;;17.10;3.50;;;;;;;14.88;100.00;102115.06;4936773;29;20048;-79
2022/10/07 09:45:30;;;;;;;10.48;2.95;;;;;;;14.93;100.00;102111.56;4910677;29;20405;-77
2022/10/07 09:48:06;;;;;;;16.98;3.30;;;;;;;14.97;100.00;102113.34;4908224;29;20054;-77
2022/10/07 09:50:38;;;;;;;17.50;2.53;;;;;;;15.00;100.00;102105.38;4906193;29;20051;-77
2022/10/07 09:53:22;;;;;;;10.18;2.80;;;;;;;15.03;100.00;102099.22;4898530;29;20882;-77
2022/10/07 09:55:52;;;;;;;10.48;3.08;;;;;;;15.08;100.00;102102.75;4880060;29;20048;-77
2022/10/07 09:58:29;;;;;;;9.57;2.58;;;;;;;15.14;100.00;102100.16;4929038;29;20047;-77
2022/10/07 10:01:00;;;;;;;16.05;3.83;;;;;;;15.21;100.00;102085.13;4908302;29;20181;-78
2022/10/07 10:03:33;;;;;;;;;;;;;;;15.25;100.00;102081.59;4909247;29;20047;-77
2022/10/07 10:06:08;;;;;;;11.50;2.97;;;;;;;15.28;100.00;102083.41;4916960;29;19969;-77
2022/10/07 10:08:37;;;;;;;9.75;2.97;;;;;;;15.32;100.00;102075.44;4899379;29;20513;-77
2022/10/07 10:11:27;;;;;;;15.75;4.15;;;;;;;15.39;100.00;102079.00;4879511;29;20043;-77
2022/10/07 10:13:55;;;;;;;13.15;2.78;;;;;;;15.45;100.00;102076.34;4894260;29;20047;-77
2022/10/07 10:16:24;;;;;;;10.52;2.38;;;;;;;15.47;100.00;102063.97;4898480;29;20040;-77
2022/10/07 10:18:58;;;;;;;10.75;2.97;;;;;;;15.49;100.00;102064.84;4921507;29;20409;-77
2022/10/07 10:21:35;;;;;;;12.57;3.67;;;;;;;15.53;100.00;102060.44;4918854;29;20048;-77
2022/10/07 10:24:09;;;;;;;12.00;3.03;;;;;;;15.51;100.00;102067.50;4866567;29;20253;-77
2022/10/07 10:26:48;;;;;;;15.20;2.65;;;;;;;15.54;100.00;102054.25;4882928;29;20056;-77
2022/10/07 10:29:50;;;;;;;13.68;3.47;;;;;;;15.58;100.00;102064.00;4930096;29;20375;-77
2022/10/07 10:32:43;;;;;;;13.30;2.75;;;;;;;15.64;100.00;102052.50;4894054;29;20046;-77
2022/10/07 10:35:18;;;;;;;7.97;2.53;;;;;;;15.76;100.00;102047.22;4910721;29;20239;-76
2022/10/07 10:38:07;;;;;;;14.57;2.65;;;;;;;15.83;100.00;102035.69;4900379;29;20036;-77
2022/10/07 10:40:53;;;;;;;13.02;3.35;;;;;;;15.89;100.00;102038.34;4865967;29;20040;-77
2022/10/07 10:43:43;;;;;;;13.20;2.65;;;;;;;15.95;100.00;102040.13;4910389;29;20059;-77
2022/10/07 10:46:38;;;;;;;13.30;3.30;;;;;;;16.01;100.00;102034.84;4898224;29;20067;-76
2022/10/07 10:49:26;;;;;;;13.00;3.05;;;;;;;16.06;100.00;102025.06;4906442;29;20047;-77
2022/10/07 10:51:57;;;;;;;9.77;2.55;;;;;;;16.14;100.00;102014.41;4916369;28;20413;-76
2022/10/07 10:54:38;;;;;;;8.63;2.40;;;;;;;16.25;100.00;102017.06;4912107;29;20043;-77
2022/10/07 10:57:08;;;;;;;11.82;2.45;;;;;;;16.30;100.00;102010.84;4873397;29;20035;-79
2022/10/07 11:00:11;;;;;;;13.35;2.65;;;;;;;16.40;100.00;102010.81;4905277;29;20059;-83
2022/10/07 11:02:47;;;;;;;11.55;2.25;;;;;;;16.40;100.00;102013.50;4909721;29;20527;-77
2022/10/07 11:05:27;;;;;;;11.02;3.33;;;;;;;16.43;100.00;102013.50;4915601;29;20052;-77
2022/10/07 11:08:03;;;;;;;12.80;2.53;;;;;;;16.46;100.00;102013.47;4898869;29;20365;-77
2022/10/07 11:10:40;;;;;;;12.50;2.40;;;;;;;16.48;100.00;102001.03;4932935;29;20052;-78
2022/10/07 11:13:11;;;;;;;12.50;2.80;;;;;;;16.49;100.00;102005.50;4885275;29;20397;-78
2022/10/07 11:15:47;;;;;;;16.73;2.70;;;;;;;16.57;100.00;102001.00;4914078;29;20047;-77
2022/10/07 11:18:26;;;;;;;9.73;2.83;;;;;;;16.66;100.00;102000.13;4931350;29;20048;-77
2022/10/07 11:20:58;;;;;;;11.65;2.65;;;;;;;16.65;100.00;101987.69;4926332;29;20059;-78
2022/10/07 11:23:56;;;;;;;15.82;3.85;;;;;;;16.66;100.00;101995.66;4902454;29;20602;-78
2022/10/07 11:26:57;;;;;;;14.95;3.30;;;;;;;16.68;100.00;101987.69;4893372;29;20607;-80
2022/10/07 11:29:48;;;;;;;;;;;;;;;16.64;100.00;101994.78;4878099;29;20048;-78
2022/10/07 11:32:30;;;;;;;11.60;2.75;;;;;;;16.62;100.00;101964.63;4920829;29;19923;-78
2022/10/07 11:35:20;;;;;;;12.70;2.88;;;;;;;16.70;100.00;101964.59;4883625;29;20054;-78
2022/10/07 11:37:57;;;;;;;13.93;2.75;;;;;;;16.72;100.00;101957.50;4910083;29;20373;-77
2022/10/07 11:40:32;;;;;;;11.23;2.88;;;;;;;16.75;100.00;101954.84;4895217;29;20501;-78
2022/10/07 11:43:13;;;;;;;8.40;2.35;;;;;;;16.70;100.00;101949.50;4883822;29;20144;-78
2022/10/07 11:45:48;;;;;;;8.60;2.13;;;;;;;16.60;100.00;101944.22;4921703;29;20051;-78
2022/10/07 11:48:37;;;;;;;9.48;2.00;;;;;;;16.67;100.00;101938.00;4916810;29;20043;-77
2022/10/07 11:51:14;;;;;;;9.10;2.15;;;;;;;16.70;100.00;101932.66;4912717;29;20044;-78
2022/10/07 11:53:43;;;;;;;10.32;2.67;;;;;;;16.76;100.00;101927.31;4899044;29;20040;-78
2022/10/07 11:56:23;;;;;;;12.07;2.92;;;;;;;16.91;100.00;101923.72;4888368;29;20520;-79